createdAt,value
2017-01-10T00:00:03.582Z,0
2017-01-10T00:01:03.570Z,0
2017-01-10T00:02:03.577Z,0
2017-01-10T00:03:03.597Z,0
2017-01-10T00:04:03.603Z,0
2017-01-10T00:05:03.615Z,0
2017-01-10T00:06:03.623Z,0
2017-01-10T00:07:03.655Z,0
2017-01-10T00:08:03.654Z,0
2017-01-10T00:09:03.659Z,0
2017-01-10T00:10:03.667Z,0
2017-01-10T00:11:03.682Z,0
2017-01-10T00:12:03.692Z,0
2017-01-10T00:13:03.695Z,0
2017-01-10T00:14:03.711Z,0
2017-01-10T00:15:03.731Z,0
2017-01-10T00:16:03.749Z,0
2017-01-10T00:17:03.741Z,0
2017-01-10T00:18:03.750Z,0
2017-01-10T00:19:03.759Z,0
2017-01-10T00:20:03.777Z,0
2017-01-10T00:21:03.781Z,0
2017-01-10T00:22:03.791Z,0
2017-01-10T00:23:03.802Z,0
2017-01-10T00:24:03.812Z,0
2017-01-10T00:25:03.823Z,0
2017-01-10T00:26:03.832Z,0
2017-01-10T00:27:03.844Z,0
2017-01-10T00:28:03.852Z,0
2017-01-10T00:29:03.866Z,0
2017-01-10T00:30:03.879Z,0
2017-01-10T00:31:03.896Z,0
2017-01-10T00:32:03.894Z,0
2017-01-10T00:33:03.909Z,0
2017-01-10T00:34:03.916Z,0
2017-01-10T00:35:03.928Z,0
2017-01-10T00:36:03.942Z,0
2017-01-10T00:37:03.947Z,0
2017-01-10T00:38:03.958Z,0
2017-01-10T00:39:03.971Z,0
2017-01-10T00:40:03.979Z,0
2017-01-10T00:41:03.995Z,0
2017-01-10T00:42:03.996Z,0
2017-01-10T00:43:04.017Z,0
2017-01-10T00:44:04.028Z,0
2017-01-10T00:45:04.036Z,0
2017-01-10T00:46:04.050Z,0
2017-01-10T00:47:04.059Z,0
2017-01-10T00:48:04.068Z,0
2017-01-10T00:49:04.084Z,0
2017-01-10T00:50:04.093Z,0
2017-01-10T00:51:04.098Z,0
2017-01-10T00:52:04.111Z,0
2017-01-10T00:53:04.118Z,0
2017-01-10T00:54:04.134Z,0
2017-01-10T00:55:04.141Z,0
2017-01-10T00:56:04.170Z,0
2017-01-10T00:57:04.161Z,0
2017-01-10T00:58:04.179Z,0
2017-01-10T00:59:04.180Z,0
2017-01-10T01:00:04.193Z,0
2017-01-10T01:01:04.202Z,0
2017-01-10T01:02:04.210Z,0
2017-01-10T01:03:04.219Z,0
2017-01-10T01:04:04.234Z,0
2017-01-10T01:05:04.249Z,0
2017-01-10T01:06:04.255Z,0
2017-01-10T01:07:04.264Z,0
2017-01-10T01:08:04.276Z,0
2017-01-10T01:09:04.288Z,0
2017-01-10T01:10:04.299Z,0
2017-01-10T01:11:04.318Z,0
2017-01-10T01:12:04.322Z,0
2017-01-10T01:13:04.342Z,0
2017-01-10T01:14:04.340Z,0
2017-01-10T01:15:04.353Z,0
2017-01-10T01:16:04.370Z,0
2017-01-10T01:17:04.404Z,0
2017-01-10T01:18:04.379Z,0
2017-01-10T01:19:04.417Z,0
2017-01-10T01:20:10.678Z,0
2017-01-10T01:21:04.423Z,0
2017-01-10T01:22:04.426Z,0
2017-01-10T01:23:04.444Z,0
2017-01-10T01:24:04.478Z,0
2017-01-10T01:25:04.466Z,0
2017-01-10T01:26:04.471Z,0
2017-01-10T01:27:04.482Z,0
2017-01-10T01:28:04.490Z,0
2017-01-10T01:29:04.503Z,0
2017-01-10T01:30:04.521Z,0
2017-01-10T01:31:04.525Z,0
2017-01-10T01:32:04.535Z,0
2017-01-10T01:33:04.552Z,0
2017-01-10T01:34:04.560Z,0
2017-01-10T01:35:04.563Z,0
2017-01-10T01:36:04.571Z,0
2017-01-10T01:37:04.591Z,0
2017-01-10T01:38:04.605Z,0
2017-01-10T01:39:04.609Z,0
2017-01-10T01:40:04.614Z,0
2017-01-10T01:41:04.631Z,0
2017-01-10T01:42:04.646Z,0
2017-01-10T01:43:04.645Z,0
2017-01-10T01:44:04.667Z,0
2017-01-10T01:45:04.671Z,0
2017-01-10T01:46:04.697Z,0
2017-01-10T01:47:04.696Z,0
2017-01-10T01:48:04.707Z,0
2017-01-10T01:49:04.716Z,0
2017-01-10T01:50:04.723Z,0
2017-01-10T01:51:04.731Z,0
2017-01-10T01:52:04.756Z,0
2017-01-10T01:53:04.756Z,0
2017-01-10T01:54:04.785Z,0
2017-01-10T01:55:04.780Z,0
2017-01-10T01:56:04.788Z,0
2017-01-10T01:57:04.803Z,0
2017-01-10T01:58:04.812Z,0
2017-01-10T01:59:04.822Z,0
2017-01-10T02:00:04.867Z,0
2017-01-10T02:01:04.843Z,0
2017-01-10T02:02:04.867Z,0
2017-01-10T02:03:04.859Z,0
2017-01-10T02:04:04.872Z,0
2017-01-10T02:05:04.879Z,0
2017-01-10T02:06:04.916Z,0
2017-01-10T02:07:04.903Z,0
2017-01-10T02:08:04.916Z,0
2017-01-10T02:09:04.922Z,0
2017-01-10T02:10:05.334Z,0
2017-01-10T02:11:04.947Z,0
2017-01-10T02:12:04.960Z,0
2017-01-10T02:13:04.967Z,0
2017-01-10T02:14:05.109Z,0
2017-01-10T02:15:04.985Z,0
2017-01-10T02:16:05.044Z,0
2017-01-10T02:17:05.028Z,0
2017-01-10T02:18:05.026Z,0
2017-01-10T02:19:05.119Z,0
2017-01-10T02:20:05.167Z,0
2017-01-10T02:21:05.320Z,0
2017-01-10T02:22:05.089Z,0
2017-01-10T02:23:05.075Z,0
2017-01-10T02:24:05.099Z,0
2017-01-10T02:25:05.115Z,0
2017-01-10T02:26:05.116Z,0
2017-01-10T02:27:05.112Z,0
2017-01-10T02:28:05.138Z,0
2017-01-10T02:29:05.136Z,0
2017-01-10T02:30:05.168Z,0
2017-01-10T02:31:05.181Z,0
2017-01-10T02:32:05.188Z,0
2017-01-10T02:33:05.201Z,0
2017-01-10T02:34:05.581Z,0
2017-01-10T02:35:05.194Z,0
2017-01-10T02:36:05.223Z,0
2017-01-10T02:37:05.323Z,0
2017-01-10T02:38:05.251Z,0
2017-01-10T02:39:05.240Z,0
2017-01-10T02:40:05.254Z,0
2017-01-10T02:41:05.287Z,0
2017-01-10T02:42:05.280Z,0
2017-01-10T02:43:05.278Z,0
2017-01-10T02:44:05.303Z,0
2017-01-10T02:45:05.299Z,0
2017-01-10T02:46:05.327Z,0
2017-01-10T02:47:05.324Z,0
2017-01-10T02:48:05.333Z,0
2017-01-10T02:49:05.353Z,0
2017-01-10T02:50:05.384Z,0
2017-01-10T02:51:05.367Z,0
2017-01-10T02:52:05.438Z,0
2017-01-10T02:53:05.381Z,0
2017-01-10T02:54:05.428Z,0
2017-01-10T02:55:05.406Z,0
2017-01-10T02:56:05.427Z,0
2017-01-10T02:57:05.424Z,0
2017-01-10T02:58:05.442Z,0
2017-01-10T02:59:05.873Z,0
2017-01-10T03:00:05.467Z,0
2017-01-10T03:01:05.863Z,0
2017-01-10T03:02:05.478Z,0
2017-01-10T03:03:05.488Z,0
2017-01-10T03:04:05.505Z,0
2017-01-10T03:05:05.514Z,0
2017-01-10T03:06:05.532Z,0
2017-01-10T03:07:05.529Z,0
2017-01-10T03:08:05.558Z,0
2017-01-10T03:09:05.552Z,0
2017-01-10T03:10:05.564Z,0
2017-01-10T03:11:05.583Z,0
2017-01-10T03:12:05.582Z,0
2017-01-10T03:13:05.592Z,0
2017-01-10T03:14:05.639Z,0
2017-01-10T03:15:05.618Z,0
2017-01-10T03:16:05.630Z,0
2017-01-10T03:17:06.030Z,0
2017-01-10T03:18:05.646Z,0
2017-01-10T03:19:05.657Z,0
2017-01-10T03:20:05.675Z,0
2017-01-10T03:21:05.677Z,0
2017-01-10T03:22:05.698Z,0
2017-01-10T03:23:05.704Z,0
2017-01-10T03:24:05.712Z,0
2017-01-10T03:25:05.724Z,0
2017-01-10T03:26:05.731Z,0
2017-01-10T03:27:05.738Z,0
2017-01-10T03:28:05.752Z,0
2017-01-10T03:29:05.767Z,0
2017-01-10T03:30:05.771Z,0
2017-01-10T03:31:05.779Z,0
2017-01-10T03:32:05.792Z,0
2017-01-10T03:33:05.808Z,0
2017-01-10T03:34:05.809Z,0
2017-01-10T03:35:05.828Z,0
2017-01-10T03:36:05.902Z,0
2017-01-10T03:37:05.845Z,0
2017-01-10T03:38:05.855Z,0
2017-01-10T03:39:05.888Z,0
2017-01-10T03:40:05.878Z,0
2017-01-10T03:41:05.886Z,0
2017-01-10T03:42:05.902Z,0
2017-01-10T03:43:05.902Z,0
2017-01-10T03:44:05.918Z,0
2017-01-10T03:45:05.927Z,0
2017-01-10T03:46:05.946Z,0
2017-01-10T03:47:05.951Z,0
2017-01-10T03:48:05.966Z,0
2017-01-10T03:49:05.971Z,0
2017-01-10T03:50:05.982Z,0
2017-01-10T03:51:05.991Z,0
2017-01-10T03:52:06.000Z,0
2017-01-10T03:53:06.018Z,0
2017-01-10T03:54:06.025Z,0
2017-01-10T03:55:06.035Z,0
2017-01-10T03:56:06.045Z,0
2017-01-10T03:57:06.063Z,0
2017-01-10T03:58:06.064Z,0
2017-01-10T03:59:06.079Z,0
2017-01-10T04:00:06.083Z,0
2017-01-10T04:01:06.094Z,0
2017-01-10T04:02:06.108Z,0
2017-01-10T04:03:06.116Z,0
2017-01-10T04:04:06.130Z,0
2017-01-10T04:05:06.132Z,0
2017-01-10T04:06:06.152Z,0
2017-01-10T04:07:06.159Z,0
2017-01-10T04:08:06.175Z,0
2017-01-10T04:09:06.177Z,0
2017-01-10T04:10:06.195Z,0
2017-01-10T04:11:06.196Z,0
2017-01-10T04:12:06.206Z,0
2017-01-10T04:13:06.221Z,0
2017-01-10T04:14:06.227Z,0
2017-01-10T04:15:06.638Z,0
2017-01-10T04:16:06.250Z,0
2017-01-10T04:17:06.263Z,0
2017-01-10T04:18:06.271Z,0
2017-01-10T04:19:06.279Z,0
2017-01-10T04:20:06.289Z,0
2017-01-10T04:21:06.337Z,0
2017-01-10T04:22:06.313Z,0
2017-01-10T04:23:06.319Z,0
2017-01-10T04:24:06.331Z,0
2017-01-10T04:25:06.341Z,0
2017-01-10T04:26:06.356Z,0
2017-01-10T04:27:06.365Z,0
2017-01-10T04:28:06.374Z,0
2017-01-10T04:29:06.390Z,0
2017-01-10T04:30:06.396Z,0
2017-01-10T04:31:06.401Z,0
2017-01-10T04:32:06.416Z,0
2017-01-10T04:33:06.431Z,0
2017-01-10T04:34:06.439Z,0
2017-01-10T04:35:06.450Z,0
2017-01-10T04:36:06.454Z,0
2017-01-10T04:37:06.469Z,0
2017-01-10T04:38:06.478Z,0
2017-01-10T04:39:06.491Z,0
2017-01-10T04:40:06.895Z,0
2017-01-10T04:41:06.509Z,0
2017-01-10T04:42:06.519Z,0
2017-01-10T04:43:06.529Z,0
2017-01-10T04:44:06.542Z,0
2017-01-10T04:45:06.547Z,0
2017-01-10T04:46:06.563Z,0
2017-01-10T04:47:06.568Z,0
2017-01-10T04:48:06.582Z,0
2017-01-10T04:49:06.591Z,0
2017-01-10T04:50:06.611Z,0
2017-01-10T04:51:06.611Z,0
2017-01-10T04:52:06.627Z,0
2017-01-10T04:53:06.633Z,0
2017-01-10T04:54:06.647Z,0
2017-01-10T04:55:06.657Z,0
2017-01-10T04:56:06.663Z,0
2017-01-10T04:57:06.680Z,0
2017-01-10T04:58:06.692Z,0
2017-01-10T04:59:06.696Z,0
2017-01-10T05:00:06.707Z,0
2017-01-10T05:01:06.714Z,0
2017-01-10T05:02:06.732Z,0
2017-01-10T05:03:06.738Z,0
2017-01-10T05:04:06.780Z,0
2017-01-10T05:05:06.763Z,0
2017-01-10T05:06:06.791Z,0
2017-01-10T05:07:06.779Z,0
2017-01-10T05:08:06.791Z,0
2017-01-10T05:09:06.805Z,0
2017-01-10T05:10:06.808Z,0
2017-01-10T05:11:06.824Z,0
2017-01-10T05:12:06.840Z,0
2017-01-10T05:13:06.841Z,0
2017-01-10T05:14:06.870Z,0
2017-01-10T05:15:06.863Z,0
2017-01-10T05:16:06.871Z,0
2017-01-10T05:17:06.881Z,0
2017-01-10T05:18:06.893Z,0
2017-01-10T05:19:06.900Z,0
2017-01-10T05:20:06.933Z,0
2017-01-10T05:21:07.324Z,0
2017-01-10T05:22:06.950Z,0
2017-01-10T05:23:06.949Z,0
2017-01-10T05:24:06.960Z,0
2017-01-10T05:25:07.363Z,0
2017-01-10T05:26:06.979Z,0
2017-01-10T05:27:06.988Z,0
2017-01-10T05:28:07.005Z,0
2017-01-10T05:29:07.007Z,0
2017-01-10T05:30:07.034Z,0
2017-01-10T05:31:07.031Z,0
2017-01-10T05:32:07.045Z,0
2017-01-10T05:33:07.052Z,0
2017-01-10T05:34:07.077Z,0
2017-01-10T05:35:07.064Z,0
2017-01-10T05:36:07.099Z,0
2017-01-10T05:37:07.090Z,0
2017-01-10T05:38:07.101Z,0
2017-01-10T05:39:07.115Z,0
2017-01-10T05:40:07.118Z,0
2017-01-10T05:41:07.131Z,0
2017-01-10T05:42:07.153Z,0
2017-01-10T05:43:07.154Z,0
2017-01-10T05:44:07.168Z,0
2017-01-10T05:45:07.172Z,0
2017-01-10T05:46:07.175Z,0
2017-01-10T05:47:07.207Z,0
2017-01-10T05:48:07.206Z,0
2017-01-10T05:49:07.227Z,0
2017-01-10T05:50:07.233Z,0
2017-01-10T05:51:07.246Z,0
2017-01-10T05:52:07.249Z,0
2017-01-10T05:53:07.251Z,0
2017-01-10T05:54:07.268Z,0
2017-01-10T05:55:07.275Z,0
2017-01-10T05:56:07.289Z,0
2017-01-10T05:57:07.296Z,0
2017-01-10T05:58:07.326Z,0
2017-01-10T05:59:07.315Z,0
2017-01-10T06:00:07.337Z,0
2017-01-10T06:01:07.335Z,0
2017-01-10T06:02:07.342Z,0
2017-01-10T06:03:07.355Z,0
2017-01-10T06:04:07.377Z,0
2017-01-10T06:05:07.379Z,0
2017-01-10T06:06:07.396Z,0
2017-01-10T06:07:07.397Z,0
2017-01-10T06:08:07.404Z,0
2017-01-10T06:09:07.422Z,0
2017-01-10T06:10:07.432Z,0
2017-01-10T06:11:07.436Z,0
2017-01-10T06:12:07.454Z,0
2017-01-10T06:13:07.458Z,0
2017-01-10T06:14:07.480Z,0
2017-01-10T06:15:07.476Z,0
2017-01-10T06:16:07.494Z,0
2017-01-10T06:17:07.525Z,0
2017-01-10T06:18:07.517Z,0
2017-01-10T06:19:07.522Z,0
2017-01-10T06:20:07.547Z,0
2017-01-10T06:21:07.541Z,0
2017-01-10T06:22:07.567Z,0
2017-01-10T06:23:07.558Z,0
2017-01-10T06:24:07.578Z,0
2017-01-10T06:25:07.581Z,0
2017-01-10T06:26:07.600Z,0
2017-01-10T06:27:07.604Z,0
2017-01-10T06:28:07.631Z,0
2017-01-10T06:29:07.652Z,0
2017-01-10T06:30:07.681Z,0
2017-01-10T06:31:07.642Z,0
2017-01-10T06:32:07.656Z,0
2017-01-10T06:33:07.666Z,0
2017-01-10T06:34:07.690Z,0
2017-01-10T06:35:07.687Z,0
2017-01-10T06:36:07.711Z,0
2017-01-10T06:37:07.704Z,0
2017-01-10T06:38:07.717Z,0
2017-01-10T06:39:07.727Z,0
2017-01-10T06:40:07.739Z,0
2017-01-10T06:41:07.752Z,0
2017-01-10T06:42:07.772Z,0
2017-01-10T06:43:07.771Z,0
2017-01-10T06:44:08.184Z,0
2017-01-10T06:45:07.790Z,0
2017-01-10T06:46:07.807Z,0
2017-01-10T06:47:07.807Z,0
2017-01-10T06:48:07.821Z,4
2017-01-10T06:49:07.830Z,4
2017-01-10T06:50:07.882Z,0
2017-01-10T06:51:07.858Z,0
2017-01-10T06:52:07.864Z,4
2017-01-10T06:53:07.874Z,4
2017-01-10T06:54:07.884Z,4
2017-01-10T06:55:07.894Z,4
2017-01-10T06:56:07.899Z,8
2017-01-10T06:57:07.917Z,4
2017-01-10T06:58:07.922Z,8
2017-01-10T06:59:07.932Z,4
2017-01-10T07:00:07.943Z,8
2017-01-10T07:01:07.953Z,8
2017-01-10T07:02:07.960Z,12
2017-01-10T07:03:07.971Z,12
2017-01-10T07:04:07.982Z,12
2017-01-10T07:05:07.991Z,16
2017-01-10T07:06:08.008Z,16
2017-01-10T07:07:08.040Z,16
2017-01-10T07:08:08.061Z,20
2017-01-10T07:09:08.035Z,20
2017-01-10T07:10:08.046Z,20
2017-01-10T07:11:08.054Z,24
2017-01-10T07:12:08.067Z,28
2017-01-10T07:13:08.078Z,28
2017-01-10T07:14:08.088Z,32
2017-01-10T07:15:08.127Z,32
2017-01-10T07:16:08.104Z,32
2017-01-10T07:17:08.116Z,40
2017-01-10T07:18:08.132Z,36
2017-01-10T07:19:08.140Z,44
2017-01-10T07:20:08.149Z,48
2017-01-10T07:21:08.159Z,48
2017-01-10T07:22:08.171Z,52
2017-01-10T07:23:08.178Z,56
2017-01-10T07:24:08.194Z,56
2017-01-10T07:25:08.205Z,60
2017-01-10T07:26:08.216Z,64
2017-01-10T07:27:08.241Z,68
2017-01-10T07:28:08.235Z,72
2017-01-10T07:29:08.243Z,76
2017-01-10T07:30:08.249Z,76
2017-01-10T07:31:08.260Z,84
2017-01-10T07:32:08.276Z,88
2017-01-10T07:33:08.284Z,92
2017-01-10T07:34:08.293Z,96
2017-01-10T07:35:08.304Z,100
2017-01-10T07:36:08.311Z,104
2017-01-10T07:37:08.324Z,112
2017-01-10T07:38:08.334Z,112
2017-01-10T07:39:08.343Z,116
2017-01-10T07:40:08.357Z,124
2017-01-10T07:41:08.361Z,128
2017-01-10T07:42:08.393Z,132
2017-01-10T07:43:08.386Z,136
2017-01-10T07:44:08.411Z,140
2017-01-10T07:45:08.412Z,140
2017-01-10T07:46:08.418Z,148
2017-01-10T07:47:08.433Z,152
2017-01-10T07:48:08.435Z,152
2017-01-10T07:49:08.446Z,164
2017-01-10T07:50:08.464Z,164
2017-01-10T07:51:08.470Z,172
2017-01-10T07:52:08.475Z,176
2017-01-10T07:53:08.486Z,180
2017-01-10T07:54:08.499Z,184
2017-01-10T07:55:08.508Z,192
2017-01-10T07:56:08.522Z,192
2017-01-10T07:57:08.539Z,200
2017-01-10T07:58:08.542Z,204
2017-01-10T07:59:08.553Z,204
2017-01-10T08:00:08.673Z,216
2017-01-10T08:01:08.570Z,232
2017-01-10T08:02:08.585Z,228
2017-01-10T08:03:08.590Z,224
2017-01-10T08:04:08.604Z,228
2017-01-10T08:05:08.620Z,220
2017-01-10T08:06:08.632Z,216
2017-01-10T08:07:08.640Z,232
2017-01-10T08:08:08.644Z,240
2017-01-10T08:09:08.654Z,240
2017-01-10T08:10:09.070Z,236
2017-01-10T08:11:08.677Z,236
2017-01-10T08:12:08.693Z,244
2017-01-10T08:13:08.697Z,260
2017-01-10T08:14:08.708Z,268
2017-01-10T08:15:08.716Z,272
2017-01-10T08:16:08.727Z,288
2017-01-10T08:17:08.735Z,288
2017-01-10T08:18:08.748Z,288
2017-01-10T08:19:08.759Z,284
2017-01-10T08:20:08.766Z,288
2017-01-10T08:21:08.785Z,296
2017-01-10T08:22:08.787Z,296
2017-01-10T08:23:08.796Z,300
2017-01-10T08:24:08.806Z,308
2017-01-10T08:25:08.819Z,320
2017-01-10T08:26:08.832Z,320
2017-01-10T08:27:08.847Z,328
2017-01-10T08:28:08.848Z,312
2017-01-10T08:29:08.871Z,288
2017-01-10T08:30:08.870Z,292
2017-01-10T08:31:08.883Z,288
2017-01-10T08:32:08.894Z,284
2017-01-10T08:33:08.904Z,288
2017-01-10T08:34:08.916Z,288
2017-01-10T08:35:08.921Z,276
2017-01-10T08:36:08.933Z,276
2017-01-10T08:37:08.938Z,272
2017-01-10T08:38:08.965Z,264
2017-01-10T08:39:08.961Z,252
2017-01-10T08:40:08.969Z,248
2017-01-10T08:41:08.986Z,244
2017-01-10T08:42:08.998Z,248
2017-01-10T08:43:09.003Z,248
2017-01-10T08:44:09.016Z,240
2017-01-10T08:45:09.032Z,240
2017-01-10T08:46:09.069Z,240
2017-01-10T08:47:09.051Z,240
2017-01-10T08:48:09.060Z,240
2017-01-10T08:49:09.074Z,240
2017-01-10T08:50:09.076Z,244
2017-01-10T08:51:09.088Z,244
2017-01-10T08:52:09.098Z,248
2017-01-10T08:53:09.120Z,248
2017-01-10T08:54:09.120Z,248
2017-01-10T08:55:09.133Z,252
2017-01-10T08:56:09.144Z,248
2017-01-10T08:57:09.150Z,256
2017-01-10T08:58:09.163Z,256
2017-01-10T08:59:09.173Z,256
2017-01-10T09:00:09.185Z,260
2017-01-10T09:01:09.199Z,256
2017-01-10T09:02:09.205Z,256
2017-01-10T09:03:09.212Z,260
2017-01-10T09:04:09.231Z,264
2017-01-10T09:05:09.235Z,260
2017-01-10T09:06:09.250Z,264
2017-01-10T09:07:09.258Z,264
2017-01-10T09:08:09.297Z,264
2017-01-10T09:09:09.315Z,268
2017-01-10T09:10:09.288Z,268
2017-01-10T09:11:09.306Z,272
2017-01-10T09:12:09.333Z,272
2017-01-10T09:13:09.319Z,272
2017-01-10T09:14:09.332Z,272
2017-01-10T09:15:09.343Z,276
2017-01-10T09:16:09.359Z,272
2017-01-10T09:17:09.363Z,276
2017-01-10T09:18:09.372Z,276
2017-01-10T09:19:09.395Z,276
2017-01-10T09:20:09.396Z,280
2017-01-10T09:21:09.411Z,280
2017-01-10T09:22:09.418Z,280
2017-01-10T09:23:09.423Z,284
2017-01-10T09:24:09.470Z,284
2017-01-10T09:25:09.464Z,284
2017-01-10T09:26:09.858Z,284
2017-01-10T09:27:09.465Z,288
2017-01-10T09:28:09.478Z,284
2017-01-10T09:29:09.504Z,288
2017-01-10T09:30:09.499Z,288
2017-01-10T09:31:09.563Z,292
2017-01-10T09:32:09.529Z,292
2017-01-10T09:33:09.534Z,292
2017-01-10T09:34:09.543Z,296
2017-01-10T09:35:09.550Z,296
2017-01-10T09:36:09.561Z,296
2017-01-10T09:37:09.577Z,300
2017-01-10T09:38:09.582Z,300
2017-01-10T09:39:09.602Z,304
2017-01-10T09:40:09.623Z,304
2017-01-10T09:41:09.638Z,304
2017-01-10T09:42:09.630Z,304
2017-01-10T09:43:09.631Z,308
2017-01-10T09:44:09.650Z,308
2017-01-10T09:45:09.662Z,308
2017-01-10T09:46:09.663Z,308
2017-01-10T09:47:09.680Z,308
2017-01-10T09:48:09.705Z,312
2017-01-10T09:49:09.706Z,312
2017-01-10T09:50:09.718Z,316
2017-01-10T09:51:09.721Z,312
2017-01-10T09:52:09.752Z,316
2017-01-10T09:53:09.750Z,316
2017-01-10T09:54:09.776Z,316
2017-01-10T09:55:09.762Z,320
2017-01-10T09:56:09.775Z,320
2017-01-10T09:57:09.782Z,324
2017-01-10T09:58:09.790Z,324
2017-01-10T09:59:09.804Z,324
2017-01-10T10:00:09.819Z,324
2017-01-10T10:01:09.827Z,324
2017-01-10T10:02:09.834Z,328
2017-01-10T10:03:09.846Z,328
2017-01-10T10:04:09.850Z,328
2017-01-10T10:05:09.862Z,328
2017-01-10T10:06:09.880Z,332
2017-01-10T10:07:09.889Z,332
2017-01-10T10:08:09.902Z,332
2017-01-10T10:09:09.909Z,332
2017-01-10T10:10:09.923Z,336
2017-01-10T10:11:09.930Z,336
2017-01-10T10:12:09.944Z,336
2017-01-10T10:13:09.949Z,336
2017-01-10T10:14:09.959Z,340
2017-01-10T10:15:09.971Z,340
2017-01-10T10:16:09.980Z,340
2017-01-10T10:17:09.990Z,340
2017-01-10T10:18:09.996Z,340
2017-01-10T10:19:10.020Z,340
2017-01-10T10:20:10.022Z,344
2017-01-10T10:21:10.032Z,344
2017-01-10T10:22:10.043Z,344
2017-01-10T10:23:10.055Z,348
2017-01-10T10:24:10.062Z,348
2017-01-10T10:25:10.075Z,348
2017-01-10T10:26:10.085Z,352
2017-01-10T10:27:10.094Z,360
2017-01-10T10:28:10.103Z,360
2017-01-10T10:29:10.112Z,364
2017-01-10T10:30:10.134Z,364
2017-01-10T10:31:10.158Z,368
2017-01-10T10:32:10.153Z,368
2017-01-10T10:33:10.162Z,372
2017-01-10T10:34:10.180Z,376
2017-01-10T10:35:10.177Z,376
2017-01-10T10:36:10.191Z,372
2017-01-10T10:37:10.202Z,376
2017-01-10T10:38:10.208Z,376
2017-01-10T10:39:10.219Z,380
2017-01-10T10:40:10.229Z,384
2017-01-10T10:41:10.237Z,384
2017-01-10T10:42:10.253Z,388
2017-01-10T10:43:10.269Z,388
2017-01-10T10:44:10.271Z,388
2017-01-10T10:45:10.278Z,388
2017-01-10T10:46:10.293Z,392
2017-01-10T10:47:10.299Z,396
2017-01-10T10:48:10.308Z,396
2017-01-10T10:49:10.320Z,400
2017-01-10T10:50:10.341Z,404
2017-01-10T10:51:10.340Z,408
2017-01-10T10:52:10.356Z,404
2017-01-10T10:53:10.368Z,404
2017-01-10T10:54:10.374Z,408
2017-01-10T10:55:10.389Z,412
2017-01-10T10:56:10.397Z,408
2017-01-10T10:57:10.407Z,412
2017-01-10T10:58:10.438Z,416
2017-01-10T10:59:10.426Z,412
2017-01-10T11:00:10.438Z,416
2017-01-10T11:01:10.447Z,416
2017-01-10T11:02:10.462Z,420
2017-01-10T11:03:10.469Z,424
2017-01-10T11:04:10.483Z,424
2017-01-10T11:05:10.495Z,428
2017-01-10T11:06:10.496Z,428
2017-01-10T11:07:10.514Z,428
2017-01-10T11:08:10.520Z,428
2017-01-10T11:09:10.539Z,436
2017-01-10T11:10:10.543Z,432
2017-01-10T11:11:10.551Z,436
2017-01-10T11:12:10.576Z,436
2017-01-10T11:13:10.591Z,436
2017-01-10T11:14:10.593Z,440
2017-01-10T11:15:10.597Z,440
2017-01-10T11:16:10.606Z,440
2017-01-10T11:17:10.620Z,444
2017-01-10T11:18:10.628Z,444
2017-01-10T11:19:10.645Z,444
2017-01-10T11:20:10.651Z,452
2017-01-10T11:21:10.678Z,448
2017-01-10T11:22:10.672Z,452
2017-01-10T11:23:10.683Z,448
2017-01-10T11:24:10.690Z,452
2017-01-10T11:25:10.707Z,452
2017-01-10T11:26:10.712Z,456
2017-01-10T11:27:10.727Z,452
2017-01-10T11:28:10.737Z,456
2017-01-10T11:29:10.746Z,456
2017-01-10T11:30:10.755Z,456
2017-01-10T11:31:10.768Z,460
2017-01-10T11:32:10.786Z,460
2017-01-10T11:33:10.793Z,460
2017-01-10T11:34:10.806Z,460
2017-01-10T11:35:10.814Z,464
2017-01-10T11:36:10.823Z,464
2017-01-10T11:37:10.837Z,456
2017-01-10T11:38:10.849Z,460
2017-01-10T11:39:10.863Z,460
2017-01-10T11:40:10.875Z,456
2017-01-10T11:41:10.879Z,460
2017-01-10T11:42:10.887Z,460
2017-01-10T11:43:10.905Z,460
2017-01-10T11:44:10.911Z,468
2017-01-10T11:45:10.925Z,468
2017-01-10T11:46:10.935Z,468
2017-01-10T11:47:10.943Z,464
2017-01-10T11:48:10.965Z,464
2017-01-10T11:49:10.968Z,468
2017-01-10T11:50:10.983Z,468
2017-01-10T11:51:10.991Z,468
2017-01-10T11:52:11.000Z,468
2017-01-10T11:53:11.007Z,468
2017-01-10T11:54:11.031Z,468
2017-01-10T11:55:11.037Z,468
2017-01-10T11:56:11.043Z,468
2017-01-10T11:57:11.054Z,468
2017-01-10T11:58:11.469Z,468
2017-01-10T11:59:11.075Z,468
2017-01-10T12:00:11.088Z,468
2017-01-10T12:01:11.112Z,468
2017-01-10T12:02:11.116Z,472
2017-01-10T12:03:11.153Z,476
2017-01-10T12:04:11.146Z,472
2017-01-10T12:05:11.145Z,468
2017-01-10T12:06:11.159Z,464
2017-01-10T12:07:11.164Z,464
2017-01-10T12:08:11.171Z,464
2017-01-10T12:09:11.183Z,468
2017-01-10T12:10:11.204Z,464
2017-01-10T12:11:11.208Z,468
2017-01-10T12:12:11.228Z,460
2017-01-10T12:13:11.239Z,460
2017-01-10T12:14:11.245Z,460
2017-01-10T12:15:11.251Z,460
2017-01-10T12:16:11.264Z,464
2017-01-10T12:17:11.278Z,460
2017-01-10T12:18:11.286Z,460
2017-01-10T12:19:11.300Z,456
2017-01-10T12:20:11.311Z,452
2017-01-10T12:21:11.323Z,452
2017-01-10T12:22:11.333Z,452
2017-01-10T12:23:11.340Z,452
2017-01-10T12:24:11.351Z,448
2017-01-10T12:25:11.369Z,448
2017-01-10T12:26:11.380Z,448
2017-01-10T12:27:11.385Z,444
2017-01-10T12:28:11.401Z,444
2017-01-10T12:29:11.413Z,444
2017-01-10T12:30:11.424Z,444
2017-01-10T12:31:11.451Z,440
2017-01-10T12:32:11.448Z,440
2017-01-10T12:33:11.452Z,440
2017-01-10T12:34:11.468Z,440
2017-01-10T12:35:11.475Z,436
2017-01-10T12:36:11.495Z,436
2017-01-10T12:37:11.499Z,432
2017-01-10T12:38:11.513Z,436
2017-01-10T12:39:11.517Z,432
2017-01-10T12:40:11.537Z,432
2017-01-10T12:41:11.543Z,432
2017-01-10T12:42:11.565Z,432
2017-01-10T12:43:11.571Z,432
2017-01-10T12:44:11.585Z,436
2017-01-10T12:45:11.994Z,432
2017-01-10T12:46:11.604Z,428
2017-01-10T12:47:11.614Z,428
2017-01-10T12:48:11.624Z,424
2017-01-10T12:49:11.641Z,424
2017-01-10T12:50:11.649Z,424
2017-01-10T12:51:11.660Z,424
2017-01-10T12:52:11.675Z,424
2017-01-10T12:53:11.680Z,420
2017-01-10T12:54:11.693Z,420
2017-01-10T12:55:11.701Z,420
2017-01-10T12:56:11.708Z,420
2017-01-10T12:57:11.724Z,416
2017-01-10T12:58:11.739Z,416
2017-01-10T12:59:11.755Z,416
2017-01-10T13:00:11.762Z,412
2017-01-10T13:01:11.772Z,420
2017-01-10T13:02:11.779Z,412
2017-01-10T13:03:11.801Z,412
2017-01-10T13:04:11.804Z,412
2017-01-10T13:05:11.822Z,412
2017-01-10T13:06:11.837Z,408
2017-01-10T13:07:11.839Z,408
2017-01-10T13:08:11.858Z,408
2017-01-10T13:09:11.870Z,404
2017-01-10T13:10:11.870Z,404
2017-01-10T13:11:11.885Z,400
2017-01-10T13:12:11.900Z,400
2017-01-10T13:13:11.907Z,392
2017-01-10T13:14:11.916Z,396
2017-01-10T13:15:11.924Z,392
2017-01-10T13:16:11.937Z,392
2017-01-10T13:17:11.951Z,392
2017-01-10T13:18:11.964Z,392
2017-01-10T13:19:11.968Z,392
2017-01-10T13:20:11.984Z,388
2017-01-10T13:21:11.995Z,384
2017-01-10T13:22:12.012Z,380
2017-01-10T13:23:12.019Z,380
2017-01-10T13:24:12.025Z,380
2017-01-10T13:25:12.033Z,380
2017-01-10T13:26:12.054Z,376
2017-01-10T13:27:12.061Z,372
2017-01-10T13:28:12.077Z,372
2017-01-10T13:29:12.090Z,372
2017-01-10T13:30:12.095Z,372
2017-01-10T13:31:12.114Z,372
2017-01-10T13:32:12.123Z,368
2017-01-10T13:33:12.130Z,368
2017-01-10T13:34:12.139Z,368
2017-01-10T13:35:12.151Z,360
2017-01-10T13:36:12.164Z,356
2017-01-10T13:37:12.180Z,360
2017-01-10T13:38:12.185Z,356
2017-01-10T13:39:12.203Z,352
2017-01-10T13:40:12.212Z,356
2017-01-10T13:41:12.225Z,356
2017-01-10T13:42:12.232Z,352
2017-01-10T13:43:12.247Z,352
2017-01-10T13:44:12.268Z,348
2017-01-10T13:45:12.273Z,348
2017-01-10T13:46:12.280Z,344
2017-01-10T13:47:12.297Z,344
2017-01-10T13:48:12.296Z,336
2017-01-10T13:49:12.315Z,336
2017-01-10T13:50:12.319Z,332
2017-01-10T13:51:12.334Z,332
2017-01-10T13:52:12.346Z,332
2017-01-10T13:53:12.358Z,332
2017-01-10T13:54:12.362Z,328
2017-01-10T13:55:12.380Z,324
2017-01-10T13:56:12.388Z,320
2017-01-10T13:57:12.401Z,324
2017-01-10T13:58:12.405Z,320
2017-01-10T13:59:12.423Z,320
2017-01-10T14:00:12.439Z,316
2017-01-10T14:01:12.443Z,312
2017-01-10T14:02:12.457Z,308
2017-01-10T14:03:12.465Z,308
2017-01-10T14:04:12.475Z,308
2017-01-10T14:05:12.486Z,304
2017-01-10T14:06:12.503Z,296
2017-01-10T14:07:12.510Z,296
2017-01-10T14:08:12.521Z,292
2017-01-10T14:09:12.534Z,288
2017-01-10T14:10:12.541Z,284
2017-01-10T14:11:12.554Z,280
2017-01-10T14:12:12.572Z,276
2017-01-10T14:13:12.570Z,276
2017-01-10T14:14:12.589Z,276
2017-01-10T14:15:12.602Z,276
2017-01-10T14:16:12.614Z,272